Time;durP1;ratioP1;P1;durP2;ratioP2;P2;SDS_P1;SDS_P2;PMS_P1;PMS_P2;Temp;Humidity;BMP_temperature;BMP_pressure;BME280_temperature;BME280_humidity;BME280_pressure;Samples;Min_cycle;Max_cycle;Signal;HPM_P1;HPM_P2
2023/12/20 00:00:56;;;;;;;88.85;37.47;;;;;;;-0.08;100.00;97767.88;5136426;27;20099;-77
2023/12/20 00:03:23;;;;;;;88.18;34.47;;;;;;;-0.14;100.00;97758.34;5136370;27;20490;-77
2023/12/20 00:05:49;;;;;;;73.88;32.00;;;;;;;-0.12;100.00;97763.56;5118165;27;20074;-77
2023/12/20 00:08:15;;;;;;;77.68;32.08;;;;;;;-0.16;100.00;97754.00;5119268;27;20049;-77
2023/12/20 00:10:41;;;;;;;84.50;35.47;;;;;;;-0.17;100.00;97753.13;5136250;27;20026;-77
2023/12/20 00:13:07;;;;;;;66.18;29.83;;;;;;;-0.26;100.00;97749.78;5119228;27;20440;-77
2023/12/20 00:15:33;;;;;;;57.42;27.20;;;;;;;-0.14;100.00;97739.94;5136170;27;20030;-77
2023/12/20 00:17:59;;;;;;;98.00;39.38;;;;;;;-0.17;100.00;97747.00;5155131;27;20519;-77
2023/12/20 00:20:25;;;;;;;73.93;34.03;;;;;;;-0.18;100.00;97734.75;5118947;27;20035;-78
2023/12/20 00:22:50;;;;;;;69.90;33.10;;;;;;;-0.13;100.00;97738.19;5119186;27;20050;-78
2023/12/20 00:25:16;;;;;;;66.50;30.70;;;;;;;-0.21;100.00;97740.94;5118853;27;20079;-76
2023/12/20 00:27:42;;;;;;;72.65;28.42;;;;;;;-0.34;100.00;97726.25;5114846;27;20390;-76
2023/12/20 00:30:08;;;;;;;69.28;28.48;;;;;;;-0.31;100.00;97728.88;5114458;27;20110;-76
2023/12/20 00:32:35;;;;;;;69.28;31.20;;;;;;;-0.31;100.00;97720.09;5134206;27;20037;-77
2023/12/20 00:35:01;;;;;;;74.65;31.38;;;;;;;-0.29;100.00;97721.81;5149340;27;20042;-76
2023/12/20 00:37:27;;;;;;;77.30;31.17;;;;;;;-0.33;100.00;97721.88;5133715;27;20019;-76
2023/12/20 00:39:52;;;;;;;71.40;31.02;;;;;;;-0.28;100.00;97718.31;5135679;27;20590;-76
2023/12/20 00:42:18;;;;;;;66.75;31.08;;;;;;;-0.32;100.00;97705.22;5135990;27;20411;-78
2023/12/20 00:44:43;;;;;;;82.97;36.20;;;;;;;-0.31;100.00;97712.22;5118376;27;20038;-78
2023/12/20 00:47:09;;;;;;;70.57;31.98;;;;;;;-0.51;100.00;97701.16;5116740;27;20034;-76
2023/12/20 00:49:34;;;;;;;60.20;28.60;;;;;;;-0.51;100.00;97714.28;5153928;27;20023;-77
2023/12/20 00:52:00;;;;;;;69.28;30.90;;;;;;;-0.44;100.00;97710.69;5134235;27;20047;-77
2023/12/20 00:54:26;;;;;;;86.45;35.67;;;;;;;-0.38;100.00;97713.22;5135487;27;20079;-77
2023/12/20 00:56:51;;;;;;;72.10;31.50;;;;;;;-0.36;100.00;97695.66;5111054;27;20057;-77
2023/12/20 00:59:18;;;;;;;67.88;31.25;;;;;;;-0.35;100.00;97700.03;5118178;27;20146;-76
2023/12/20 01:01:43;;;;;;;69.82;30.23;;;;;;;-0.29;100.00;97700.78;5135315;27;20022;-77
2023/12/20 01:04:09;;;;;;;74.55;33.72;;;;;;;-0.30;100.00;97690.28;5118230;27;20034;-77
2023/12/20 01:06:34;;;;;;;76.88;34.97;;;;;;;-0.30;100.00;97687.66;5135118;27;20039;-76
2023/12/20 01:09:01;;;;;;;101.38;41.28;;;;;;;-0.36;100.00;97677.25;5135226;27;20065;-76
2023/12/20 01:11:27;;;;;;;81.40;35.40;;;;;;;-0.39;100.00;97679.94;5135298;27;20026;-76
2023/12/20 01:13:53;;;;;;;105.07;43.25;;;;;;;-0.45;100.00;97682.66;5134940;27;20035;-76
2023/12/20 01:16:18;;;;;;;115.93;45.83;;;;;;;-0.48;100.00;97673.09;5147255;27;20114;-77
2023/12/20 01:18:44;;;;;;;126.07;46.42;;;;;;;-0.48;100.00;97677.47;5116592;27;20098;-77
2023/12/20 01:21:09;;;;;;;123.55;50.00;;;;;;;-0.51;100.00;97677.50;5117979;27;20410;-76
2023/12/20 01:23:35;;;;;;;133.32;52.60;;;;;;;-0.49;100.00;97673.13;5134801;27;20167;-76
2023/12/20 01:26:02;;;;;;;111.43;45.15;;;;;;;-0.58;100.00;97664.47;5134653;27;20049;-76
2023/12/20 01:28:28;;;;;;;79.15;35.72;;;;;;;-0.58;100.00;97656.59;5134786;27;20026;-76
2023/12/20 01:30:53;;;;;;;63.13;28.15;;;;;;;-0.66;100.00;97661.13;5113002;27;20030;-77
2023/12/20 01:33:19;;;;;;;68.10;28.38;;;;;;;-0.83;100.00;97649.16;5132826;27;20029;-76
2023/12/20 01:35:44;;;;;;;61.92;27.85;;;;;;;-0.83;100.00;97650.00;5113834;27;20045;-77
2023/12/20 01:38:10;;;;;;;59.30;26.08;;;;;;;-0.87;100.00;97643.09;5125347;27;20489;-76
2023/12/20 01:40:36;;;;;;;55.42;24.55;;;;;;;-0.90;100.00;97642.28;5134786;27;20099;-77
2023/12/20 01:43:02;;;;;;;51.80;23.58;;;;;;;-0.94;100.00;97645.81;5110113;27;20029;-77
2023/12/20 01:45:28;;;;;;;47.22;22.70;;;;;;;-0.95;100.00;97631.81;5134647;27;20109;-77
2023/12/20 01:47:55;;;;;;;45.65;22.50;;;;;;;-0.91;100.00;97633.53;5117080;27;20550;-77
2023/12/20 01:50:21;;;;;;;49.35;22.05;;;;;;;-0.85;100.00;97624.69;5117287;27;20019;-77
2023/12/20 01:52:47;;;;;;;53.45;22.92;;;;;;;-0.87;100.00;97626.47;5115280;27;20114;-77
2023/12/20 01:55:15;;;;;;;59.25;25.73;;;;;;;-0.85;100.00;97609.78;5134409;27;20030;-77
2023/12/20 01:57:44;;;;;;;61.75;27.20;;;;;;;-0.85;100.00;97612.41;5117243;27;20053;-77
2023/12/20 02:00:11;;;;;;;65.47;28.90;;;;;;;-0.76;100.00;97608.78;5116988;27;20031;-77
2023/12/20 02:02:39;;;;;;;57.33;24.00;;;;;;;-0.82;100.00;97594.00;5134287;27;20083;-77
2023/12/20 02:05:06;;;;;;;61.40;24.85;;;;;;;-0.77;100.00;97602.66;5134087;27;20110;-76
2023/12/20 02:07:31;;;;;;;59.80;26.77;;;;;;;-0.82;100.00;97596.63;5134188;27;20052;-76
2023/12/20 02:09:57;;;;;;;50.65;24.20;;;;;;;-0.80;100.00;97596.63;5116661;27;20113;-76
2023/12/20 02:12:23;;;;;;;62.15;25.88;;;;;;;-0.78;100.00;97589.56;5116831;27;20023;-76
2023/12/20 02:14:49;;;;;;;60.33;26.08;;;;;;;-0.70;100.00;97585.03;5116799;27;20095;-76
2023/12/20 02:17:15;;;;;;;67.55;26.88;;;;;;;-0.70;100.00;97578.03;5131395;27;20067;-76
2023/12/20 02:19:41;;;;;;;52.22;23.58;;;;;;;-0.65;100.00;97581.47;5116441;27;20400;-76
2023/12/20 02:22:11;;;;;;;50.65;22.42;;;;;;;-0.74;100.00;97576.34;5134020;27;20027;-76
2023/12/20 02:24:36;;;;;;;55.85;24.23;;;;;;;-0.70;100.00;97567.53;5116593;27;20103;-76
2023/12/20 02:27:03;;;;;;;54.42;23.50;;;;;;;-0.74;100.00;97560.59;5133791;27;20370;-77
2023/12/20 02:29:28;;;;;;;54.72;23.25;;;;;;;-0.64;100.00;97566.56;5133832;27;20026;-77
2023/12/20 02:31:54;;;;;;;57.15;23.77;;;;;;;-0.67;100.00;97561.34;5133860;27;20035;-77
2023/12/20 02:34:20;;;;;;;52.17;22.00;;;;;;;-0.67;100.00;97564.84;5128249;27;20026;-77
2023/12/20 02:36:45;;;;;;;52.75;23.00;;;;;;;-0.68;100.00;97559.63;5129985;27;20087;-77
2023/12/20 02:39:11;;;;;;;54.47;23.55;;;;;;;-0.72;100.00;97552.69;5129793;27;20022;-76
2023/12/20 02:41:36;;;;;;;54.83;23.65;;;;;;;-0.80;100.00;97554.59;5133294;27;20065;-76
2023/12/20 02:44:03;;;;;;;53.05;23.20;;;;;;;-0.92;100.00;97547.78;5129336;27;20077;-76
2023/12/20 02:46:29;;;;;;;63.53;25.77;;;;;;;-0.99;100.00;97543.56;5152110;27;20114;-77
2023/12/20 02:48:54;;;;;;;72.72;30.92;;;;;;;-1.05;100.00;97538.41;5137601;27;20110;-77
2023/12/20 02:51:20;;;;;;;79.90;32.45;;;;;;;-1.24;100.00;97531.72;5143983;27;20031;-77
2023/12/20 02:53:46;;;;;;;68.10;29.90;;;;;;;-1.27;100.00;97535.25;5129783;27;20031;-77
2023/12/20 02:56:11;;;;;;;79.65;33.45;;;;;;;-1.24;100.00;97547.47;5116369;27;20079;-76
2023/12/20 02:58:37;;;;;;;67.78;30.80;;;;;;;-1.28;100.00;97546.63;5116071;27;20370;-75
2023/12/20 03:01:05;;;;;;;80.70;34.47;;;;;;;-1.25;100.00;97541.34;5129305;27;20046;-78
2023/12/20 03:03:38;;;;;;;82.30;35.83;;;;;;;-1.36;100.00;97529.28;5129422;27;20082;-78
2023/12/20 03:06:25;;;;;;;91.10;35.90;;;;;;;-1.28;100.00;97543.13;5129323;27;20039;-78
2023/12/20 03:08:51;;;;;;;84.18;33.88;;;;;;;-1.30;100.00;97534.44;5118312;27;20414;-77
2023/12/20 03:11:17;;;;;;;85.90;37.70;;;;;;;-1.39;100.00;97511.84;5118395;27;20052;-76
2023/12/20 03:13:42;;;;;;;78.32;34.47;;;;;;;-1.30;100.00;97537.06;5133996;27;20109;-77
2023/12/20 03:16:12;;;;;;;79.38;34.25;;;;;;;-1.31;100.00;97524.81;5117074;27;20057;-78
2023/12/20 03:18:48;;;;;;;82.55;33.47;;;;;;;-1.46;100.00;97504.97;5113400;27;20027;-77
2023/12/20 03:21:14;;;;;;;66.45;28.60;;;;;;;-1.35;100.00;97531.00;5130151;27;20083;-77
2023/12/20 03:23:40;;;;;;;79.93;32.03;;;;;;;-1.48;100.00;97524.22;5131223;28;20499;-76
2023/12/20 03:26:09;;;;;;;65.82;26.60;;;;;;;-1.55;100.00;97499.84;5131545;27;20023;-76
2023/12/20 03:28:37;;;;;;;61.88;27.65;;;;;;;-1.46;100.00;97515.44;5114285;27;20496;-77
2023/12/20 03:31:04;;;;;;;60.47;26.70;;;;;;;-1.53;100.00;97516.41;5128088;27;20039;-78
2023/12/20 03:33:39;;;;;;;68.75;26.13;;;;;;;-1.56;100.00;97513.84;5119303;27;20086;-78
2023/12/20 03:36:07;;;;;;;63.40;26.40;;;;;;;-1.66;100.00;97497.38;5105012;27;20059;-78
2023/12/20 03:38:34;;;;;;;74.63;29.42;;;;;;;-1.68;100.00;97501.78;5132896;27;20027;-78
2023/12/20 03:41:04;;;;;;;83.70;31.02;;;;;;;-1.65;100.00;97504.38;5110976;27;20035;-78
2023/12/20 03:43:30;;;;;;;72.70;29.92;;;;;;;-1.59;100.00;97500.78;5134321;27;20023;-75
2023/12/20 03:45:55;;;;;;;70.55;31.25;;;;;;;-1.57;100.00;97495.53;5142654;27;20033;-77
2023/12/20 03:48:24;;;;;;;70.43;31.63;;;;;;;-1.58;100.00;97499.91;5123655;27;20124;-77
2023/12/20 03:50:49;;;;;;;77.72;30.70;;;;;;;-1.53;100.00;97497.19;5119852;27;20049;-77
2023/12/20 03:53:15;;;;;;;88.43;32.95;;;;;;;-1.53;100.00;97487.56;5134298;27;20043;-77
2023/12/20 03:55:44;;;;;;;85.80;35.08;;;;;;;-1.52;100.00;97493.69;5119816;27;20026;-77
2023/12/20 03:58:09;;;;;;;85.32;34.83;;;;;;;-1.45;100.00;97496.22;5133615;27;20053;-75
2023/12/20 04:00:35;;;;;;;93.85;37.97;;;;;;;-1.45;100.00;97492.72;5119301;27;20019;-77
2023/12/20 04:03:00;;;;;;;85.32;35.67;;;;;;;-1.50;100.00;97484.03;5134635;27;20035;-76
2023/12/20 04:05:34;;;;;;;79.10;35.00;;;;;;;-1.44;100.00;97495.28;5136763;27;20456;-78
2023/12/20 04:08:04;;;;;;;73.03;32.00;;;;;;;-1.47;100.00;97484.84;5129265;27;20510;-77
2023/12/20 04:10:29;;;;;;;75.25;32.33;;;;;;;-1.52;100.00;97472.72;5119616;27;20405;-77
2023/12/20 04:12:55;;;;;;;76.72;30.85;;;;;;;-1.52;100.00;97472.72;5136170;27;20122;-75
2023/12/20 04:15:20;;;;;;;73.63;30.83;;;;;;;-1.49;100.00;97472.66;5136198;27;20508;-76
2023/12/20 04:17:46;;;;;;;75.53;32.25;;;;;;;-1.52;100.00;97464.84;5136477;27;20026;-78
2023/12/20 04:20:12;;;;;;;157.50;44.58;;;;;;;-1.39;100.00;97469.00;5134775;27;20035;-76
2023/12/20 04:22:37;;;;;;;104.57;35.97;;;;;;;-1.50;100.00;97449.94;5154840;27;20498;-78
2023/12/20 04:25:03;;;;;;;125.03;40.40;;;;;;;-1.50;100.00;97457.81;5134612;27;20035;-77
2023/12/20 04:27:41;;;;;;;105.18;41.85;;;;;;;-1.60;100.00;97444.00;5128850;27;20057;-79
2023/12/20 04:30:07;;;;;;;114.10;44.03;;;;;;;-1.58;100.00;97450.09;5118838;27;20369;-76
2023/12/20 04:32:35;;;;;;;117.60;42.92;;;;;;;-1.58;100.00;97444.84;5118955;27;20071;-78
2023/12/20 04:35:01;;;;;;;106.95;44.92;;;;;;;-1.63;100.00;97444.91;5134217;27;20033;-77
2023/12/20 04:37:27;;;;;;;95.72;41.88;;;;;;;-1.77;100.00;97441.66;5117247;27;20470;-77
2023/12/20 04:39:55;;;;;;;113.00;43.30;;;;;;;-1.75;100.00;97445.09;5155169;27;20041;-76
2023/12/20 04:42:20;;;;;;;114.15;48.78;;;;;;;-1.84;100.00;97440.00;5135999;27;20014;-79
2023/12/20 04:45:07;;;;;;;;;;;;;;;;;;;;;
2023/12/20 04:47:33;;;;;;;121.78;47.28;;;;;;;-1.99;100.00;97414.03;5139078;27;20068;-78
2023/12/20 04:49:58;;;;;;;106.32;44.92;;;;;;;-1.89;100.00;97452.31;5136023;27;20109;-79
2023/12/20 04:52:25;;;;;;;107.10;42.05;;;;;;;-1.95;100.00;97441.06;5136212;27;20026;-76
2023/12/20 04:54:50;;;;;;;107.18;43.50;;;;;;;-1.94;100.00;97437.56;5130544;27;20512;-77
2023/12/20 04:58:06;;;;;;;95.45;37.78;;;;;;;-2.14;100.00;97395.91;5124389;27;20023;-80
2023/12/20 05:00:38;;;;;;;93.47;37.45;;;;;;;-2.00;100.00;97417.53;5153788;27;20034;-78
2023/12/20 05:03:07;;;;;;;84.70;35.33;;;;;;;-1.94;100.00;97420.09;5154688;27;20027;-78
2023/12/20 05:05:42;;;;;;;78.40;33.33;;;;;;;-2.07;100.00;97405.44;5118742;27;20402;-80
2023/12/20 05:08:07;;;;;;;74.18;31.38;;;;;;;-2.20;100.00;97412.59;5136715;27;20031;-78
2023/12/20 05:10:36;;;;;;;68.57;28.88;;;;;;;-2.35;100.00;97388.38;5118856;27;20030;-79
2023/12/20 05:13:14;;;;;;;;;;;;;;;;;;;;;
2023/12/20 05:16:01;;;;;;;65.93;26.83;;;;;;;-2.35;100.00;97410.19;5137685;27;20026;-80
2023/12/20 05:18:28;;;;;;;61.47;25.13;;;;;;;-2.44;100.00;97404.22;5136010;27;20019;-79
2023/12/20 05:20:53;;;;;;;55.35;24.15;;;;;;;-2.68;100.00;97383.59;5128061;27;20076;-76
2023/12/20 05:23:22;;;;;;;62.83;24.23;;;;;;;-2.68;100.00;97397.56;5135402;27;20410;-78
2023/12/20 05:25:52;;;;;;;63.15;26.50;;;;;;;-2.70;100.00;97387.97;5118303;27;20035;-80
2023/12/20 05:28:26;;;;;;;64.28;27.60;;;;;;;-2.69;100.00;97384.47;5134050;27;20114;-78
2023/12/20 05:30:52;;;;;;;88.72;34.20;;;;;;;-2.66;100.00;97394.91;5134573;27;20023;-78
2023/12/20 05:33:19;;;;;;;93.82;39.13;;;;;;;-2.61;100.00;97390.47;5150127;27;20037;-77
2023/12/20 05:35:57;;;;;;;73.72;29.17;;;;;;;-2.68;100.00;97384.47;5110967;27;20030;-78
2023/12/20 05:38:23;;;;;;;77.30;29.02;;;;;;;-2.60;100.00;97397.44;5119625;27;20118;-78
2023/12/20 05:40:49;;;;;;;75.15;30.02;;;;;;;-2.63;100.00;97387.00;5135256;27;20050;-78
2023/12/20 05:43:29;;;;;;;80.00;31.38;;;;;;;-2.56;100.00;97383.44;5134837;27;20027;-80
2023/12/20 05:45:57;;;;;;;88.22;33.42;;;;;;;-2.60;100.00;97382.59;5132685;27;20046;-79
2023/12/20 05:48:23;;;;;;;108.07;40.75;;;;;;;-2.49;100.00;97379.84;5132452;27;20035;-78
2023/12/20 05:50:49;;;;;;;108.38;44.55;;;;;;;-2.37;100.00;97384.91;5134214;27;20031;-79
2023/12/20 05:53:29;;;;;;;99.10;40.67;;;;;;;-2.30;100.00;97376.06;5127487;27;20046;-78
2023/12/20 05:55:55;;;;;;;104.85;42.47;;;;;;;-2.28;100.00;97366.47;5125228;27;20031;-79
2023/12/20 05:58:20;;;;;;;131.82;48.80;;;;;;;-2.17;100.00;97372.38;5134501;27;20501;-77
2023/12/20 06:00:46;;;;;;;107.07;40.90;;;;;;;-2.08;100.00;97376.63;5134434;27;20033;-79
2023/12/20 06:03:12;;;;;;;112.63;43.97;;;;;;;-2.09;100.00;97365.25;5117294;27;20117;-77
2023/12/20 06:05:40;;;;;;;114.82;43.80;;;;;;;-2.05;100.00;97360.84;5152404;27;20043;-79
2023/12/20 06:08:06;;;;;;;148.50;54.90;;;;;;;-2.08;100.00;97366.13;5117561;27;20064;-80
2023/12/20 06:10:31;;;;;;;157.10;61.15;;;;;;;-2.06;100.00;97362.59;5117520;27;20054;-79
2023/12/20 06:12:58;;;;;;;201.32;76.22;;;;;;;-2.03;100.00;97366.94;5152796;27;20470;-78
2023/12/20 06:15:24;;;;;;;185.85;63.95;;;;;;;-1.97;100.00;97369.47;5117419;27;20121;-78
2023/12/20 06:17:49;;;;;;;115.70;46.30;;;;;;;-2.04;100.00;97367.84;5133725;27;20118;-78
2023/12/20 06:20:15;;;;;;;112.43;42.30;;;;;;;-2.00;100.00;97374.75;5127864;27;20031;-79
2023/12/20 06:22:41;;;;;;;113.93;45.63;;;;;;;-2.14;100.00;97346.16;5113363;27;20053;-78
2023/12/20 06:25:10;;;;;;;114.25;45.33;;;;;;;-1.87;100.00;97373.66;5152399;27;20042;-79
2023/12/20 06:27:35;;;;;;;117.15;46.25;;;;;;;-1.87;100.00;97365.78;5124782;27;20042;-77
2023/12/20 06:30:01;;;;;;;158.65;60.15;;;;;;;-1.80;100.00;97367.44;5152234;27;20113;-79
2023/12/20 06:32:28;;;;;;;133.63;56.25;;;;;;;-1.88;100.00;97348.38;5116641;27;20026;-79
2023/12/20 06:34:56;;;;;;;168.05;61.75;;;;;;;-1.82;100.00;97345.63;5116581;27;20034;-79
2023/12/20 06:37:21;;;;;;;128.00;49.20;;;;;;;-1.72;100.00;97345.44;5110067;27;20031;-78
2023/12/20 06:39:47;;;;;;;136.30;53.75;;;;;;;-1.66;100.00;97347.94;5131769;27;20034;-79
2023/12/20 06:42:13;;;;;;;134.93;56.28;;;;;;;-1.61;100.00;97354.88;5128519;27;20091;-79
2023/12/20 06:44:41;;;;;;;156.75;67.30;;;;;;;-1.63;100.00;97343.56;5113257;27;20075;-79
2023/12/20 06:47:08;;;;;;;134.27;58.67;;;;;;;-1.76;100.00;97340.28;5107820;27;20033;-78
2023/12/20 06:49:33;;;;;;;108.78;49.10;;;;;;;-1.48;100.00;97340.69;5107774;27;20034;-78
2023/12/20 06:51:59;;;;;;;99.30;43.97;;;;;;;-0.69;100.00;97350.47;5124381;27;20022;-79
2023/12/20 06:54:25;;;;;;;120.25;52.80;;;;;;;0.70;100.00;97339.22;5116077;27;20026;-78
2023/12/20 06:56:50;;;;;;;95.68;42.40;;;;;;;1.64;100.00;97326.84;5115796;27;20078;-79
2023/12/20 06:59:16;;;;;;;96.45;41.10;;;;;;;2.32;100.00;97321.16;5133462;27;20049;-79
2023/12/20 07:01:41;;;;;;;76.75;35.05;;;;;;;2.70;100.00;97293.47;5133162;27;20050;-79
2023/12/20 07:04:07;;;;;;;71.22;35.20;;;;;;;3.43;100.00;97286.34;5133220;27;20027;-78
2023/12/20 07:06:33;;;;;;;84.72;40.10;;;;;;;3.81;100.00;97275.13;5117542;27;20042;-78
2023/12/20 07:08:58;;;;;;;94.63;40.55;;;;;;;3.39;100.00;97274.16;5155840;27;20362;-79
2023/12/20 07:11:24;;;;;;;87.35;39.47;;;;;;;3.04;100.00;97264.06;5137558;27;20102;-78
2023/12/20 07:13:50;;;;;;;96.65;45.67;;;;;;;3.82;100.00;97261.00;5155718;27;20374;-78
2023/12/20 07:16:15;;;;;;;94.28;43.80;;;;;;;4.29;100.00;97247.59;5120223;27;20025;-78
2023/12/20 07:18:41;;;;;;;124.03;56.95;;;;;;;4.75;100.00;97246.50;5137379;27;20390;-77
2023/12/20 07:21:07;;;;;;;113.20;53.35;;;;;;;5.56;100.00;97227.75;5124911;27;20023;-77
2023/12/20 07:23:33;;;;;;;144.20;63.30;;;;;;;5.52;100.00;97231.47;5115109;27;20121;-78
2023/12/20 07:25:59;;;;;;;137.50;63.72;;;;;;;5.35;100.00;97230.47;5119683;27;20553;-78
2023/12/20 07:28:24;;;;;;;136.32;68.25;;;;;;;5.64;100.00;97231.75;5119659;27;20019;-78
2023/12/20 07:30:50;;;;;;;137.98;65.30;;;;;;;5.76;100.00;97209.94;5136957;27;20046;-77
2023/12/20 07:33:16;;;;;;;152.38;72.05;;;;;;;5.46;100.00;97216.72;5150925;27;20410;-78
2023/12/20 07:35:41;;;;;;;161.43;73.15;;;;;;;5.01;100.00;97208.25;5132486;27;20145;-79
2023/12/20 07:38:07;;;;;;;170.07;79.07;;;;;;;4.67;100.00;97227.44;5136902;27;20109;-78
2023/12/20 07:40:33;;;;;;;164.23;75.50;;;;;;;4.59;100.00;97217.16;5140281;27;20558;-79
2023/12/20 07:42:58;;;;;;;195.57;78.53;;;;;;;5.03;100.00;97224.94;5132948;27;20382;-77
2023/12/20 07:45:24;;;;;;;142.05;66.63;;;;;;;6.46;100.00;97222.44;5129805;27;20381;-78
2023/12/20 07:47:50;;;;;;;150.18;68.68;;;;;;;7.45;100.00;97210.88;5154840;27;20054;-78
2023/12/20 07:50:16;;;;;;;119.40;55.05;;;;;;;9.14;100.00;97185.81;5116028;27;20027;-78
2023/12/20 07:52:41;;;;;;;127.72;61.17;;;;;;;9.51;92.61;97187.03;5132474;27;20031;-80
2023/12/20 07:55:07;;;;;;;114.40;56.70;;;;;;;9.71;88.25;97178.63;5117060;27;20058;-78
2023/12/20 07:57:34;;;;;;;104.10;53.38;;;;;;;9.93;86.13;97180.78;5130547;27;20043;-78
2023/12/20 07:59:59;;;;;;;112.35;54.15;;;;;;;9.56;87.47;97163.59;5136239;27;20378;-77
2023/12/20 08:02:25;;;;;;;108.18;52.95;;;;;;;9.36;94.49;97180.00;5131890;27;20041;-79
2023/12/20 08:04:50;;;;;;;93.00;46.95;;;;;;;9.17;94.22;97172.28;5132986;27;20117;-79
2023/12/20 08:07:16;;;;;;;93.65;47.80;;;;;;;9.30;93.85;97167.91;5115489;27;20100;-78
2023/12/20 08:09:43;;;;;;;93.57;48.50;;;;;;;9.23;96.24;97178.13;5134288;27;20019;-78
2023/12/20 08:12:09;;;;;;;93.07;48.60;;;;;;;9.58;94.43;97173.22;5133766;27;20023;-78
2023/12/20 08:14:35;;;;;;;107.40;52.10;;;;;;;8.92;98.17;97175.63;5126565;27;20015;-78
2023/12/20 08:17:00;;;;;;;105.00;54.15;;;;;;;8.62;100.00;97164.16;5115244;27;20113;-78
2023/12/20 08:19:26;;;;;;;108.90;55.50;;;;;;;8.23;100.00;97177.16;5133304;27;20050;-78
2023/12/20 08:21:51;;;;;;;111.40;57.53;;;;;;;8.17;100.00;97173.91;5132250;27;20039;-78
2023/12/20 08:24:17;;;;;;;119.88;56.42;;;;;;;8.26;100.00;97171.66;5135224;27;20027;-78
2023/12/20 08:26:43;;;;;;;150.18;64.30;;;;;;;8.20;100.00;97178.19;5154890;27;20022;-78
2023/12/20 08:29:08;;;;;;;124.30;59.28;;;;;;;8.00;100.00;97168.69;5135950;27;20397;-78
2023/12/20 08:31:34;;;;;;;143.27;65.90;;;;;;;8.77;100.00;97165.91;5134934;27;20046;-77
2023/12/20 08:33:59;;;;;;;131.02;66.93;;;;;;;9.21;100.00;97141.81;5133947;27;20138;-77
2023/12/20 08:36:25;;;;;;;144.75;71.65;;;;;;;9.20;100.00;97129.41;5107058;27;20026;-77
2023/12/20 08:38:51;;;;;;;142.52;71.20;;;;;;;8.77;100.00;97149.91;5135795;27;20103;-78
2023/12/20 08:41:17;;;;;;;149.07;77.10;;;;;;;9.07;100.00;97139.16;5135713;27;20414;-77
2023/12/20 08:43:43;;;;;;;167.60;87.03;;;;;;;10.07;100.00;97130.81;5135866;27;20026;-79
2023/12/20 08:46:12;;;;;;;147.23;71.57;;;;;;;10.16;100.00;97129.38;5128853;27;20038;-79
2023/12/20 08:48:37;;;;;;;127.22;63.10;;;;;;;10.86;97.11;97120.03;5134583;27;20030;-77
2023/12/20 08:51:04;;;;;;;166.00;77.93;;;;;;;11.49;93.31;97103.03;5127034;27;20045;-77
2023/12/20 08:53:29;;;;;;;139.15;64.43;;;;;;;12.20;85.56;97097.75;5118087;27;20031;-78
2023/12/20 08:55:55;;;;;;;127.65;62.63;;;;;;;12.79;80.81;97090.47;5115308;27;20402;-79
2023/12/20 08:58:21;;;;;;;135.93;66.28;;;;;;;14.06;71.85;97080.94;5124230;27;20080;-79
2023/12/20 09:00:46;;;;;;;119.70;62.47;;;;;;;15.87;60.15;97043.56;5135028;27;20083;-79
2023/12/20 09:03:12;;;;;;;132.73;70.97;;;;;;;16.78;55.20;97028.63;5139322;27;20027;-79
2023/12/20 09:05:37;;;;;;;130.00;69.97;;;;;;;15.23;58.13;97041.22;5134544;27;20051;-78
2023/12/20 09:08:03;;;;;;;137.93;80.05;;;;;;;14.76;62.46;97041.84;5156236;27;20112;-78
2023/12/20 09:10:29;;;;;;;129.40;75.30;;;;;;;15.30;60.37;97034.28;5136395;27;20150;-78
2023/12/20 09:12:57;;;;;;;127.03;70.97;;;;;;;16.10;57.82;97018.00;5135539;27;20026;-79
2023/12/20 09:15:27;;;;;;;117.22;67.97;;;;;;;17.00;54.74;97015.75;5135568;27;20037;-78
2023/12/20 09:17:53;;;;;;;118.20;62.65;;;;;;;18.38;50.41;96989.25;5136557;27;20038;-79
2023/12/20 09:20:19;;;;;;;93.03;55.30;;;;;;;18.84;48.15;96979.97;5110835;27;20038;-79
2023/12/20 09:22:45;;;;;;;98.90;56.58;;;;;;;19.88;45.72;96981.47;5120823;27;20029;-78
2023/12/20 09:25:12;;;;;;;108.97;58.97;;;;;;;20.53;44.31;96961.53;5142471;27;20036;-80
2023/12/20 09:27:39;;;;;;;96.55;54.67;;;;;;;21.62;42.69;96954.41;5134340;27;20359;-79
2023/12/20 09:30:05;;;;;;;168.48;100.47;;;;;;;22.41;40.68;96950.53;5119653;27;20481;-79
2023/12/20 09:32:31;;;;;;;83.72;54.28;;;;;;;22.36;40.25;96942.06;5137263;27;20489;-79
2023/12/20 09:34:57;;;;;;;76.45;47.50;;;;;;;23.19;38.78;96933.75;5134847;27;20034;-79
2023/12/20 09:37:28;;;;;;;108.53;64.68;;;;;;;22.47;39.86;96943.47;5120812;27;20586;-79
2023/12/20 09:39:54;;;;;;;154.82;92.30;;;;;;;21.96;40.90;96934.19;5135248;27;20066;-79
2023/12/20 09:42:56;;;;;;;124.65;73.13;;;;;;;21.18;42.37;96942.38;5118596;27;20031;-79
2023/12/20 09:45:22;;;;;;;112.88;68.28;;;;;;;20.31;43.59;96940.47;5110679;27;20035;-78
2023/12/20 09:47:50;;;;;;;128.30;72.22;;;;;;;19.84;43.84;96932.06;5157271;27;20031;-79
2023/12/20 09:50:18;;;;;;;119.63;69.55;;;;;;;18.42;47.17;96942.78;5157982;27;20075;-80
2023/12/20 09:52:44;;;;;;;134.60;79.53;;;;;;;17.38;50.88;96956.09;5133330;27;20031;-79
2023/12/20 09:55:10;;;;;;;147.40;90.55;;;;;;;16.40;54.88;96961.16;5135258;27;20492;-79
2023/12/20 09:57:35;;;;;;;142.30;81.43;;;;;;;15.04;63.46;96965.72;5154642;27;20018;-80
2023/12/20 10:00:01;;;;;;;136.60;81.78;;;;;;;14.65;68.09;96954.78;5134792;27;20034;-79
2023/12/20 10:02:27;;;;;;;153.70;89.97;;;;;;;14.24;76.41;96959.34;5164513;27;20038;-78
2023/12/20 10:04:54;;;;;;;160.52;95.55;;;;;;;13.79;80.98;96961.41;5144535;27;20022;-79
2023/12/20 10:07:20;;;;;;;183.20;104.57;;;;;;;12.90;86.60;96958.94;5126191;27;20043;-78
2023/12/20 10:09:46;;;;;;;176.15;105.03;;;;;;;12.57;95.73;96965.19;5136639;27;20039;-79
2023/12/20 10:12:12;;;;;;;185.40;104.13;;;;;;;12.28;99.41;96972.81;5111889;27;20099;-79
2023/12/20 10:14:39;;;;;;;203.45;113.40;;;;;;;12.22;100.00;96972.44;5140466;27;20051;-79
2023/12/20 10:17:05;;;;;;;194.20;106.90;;;;;;;12.26;100.00;96980.16;5131127;27;20027;-78
2023/12/20 10:19:32;;;;;;;200.57;102.85;;;;;;;12.45;96.15;96955.41;5128772;27;20553;-80
2023/12/20 10:22:03;;;;;;;186.85;103.13;;;;;;;12.73;95.31;96946.91;5112339;27;20065;-79
2023/12/20 10:24:29;;;;;;;176.40;98.17;;;;;;;14.00;88.59;96930.00;5116939;27;20463;-78
2023/12/20 10:27:05;;;;;;;178.48;101.15;;;;;;;14.31;83.01;96920.16;5116702;27;20026;-77
2023/12/20 10:29:33;;;;;;;155.27;85.68;;;;;;;14.25;87.10;96918.84;5149384;27;20053;-79
2023/12/20 10:31:59;;;;;;;158.57;87.45;;;;;;;13.85;91.34;96928.63;5128272;27;20126;-78
2023/12/20 10:34:24;;;;;;;154.20;86.07;;;;;;;14.28;93.33;96918.59;5134069;27;20122;-77
2023/12/20 10:36:50;;;;;;;155.68;87.72;;;;;;;14.32;99.32;96924.56;5135870;27;20023;-77
2023/12/20 10:39:20;;;;;;;145.82;78.20;;;;;;;14.57;89.95;96906.16;5134909;27;20037;-77
2023/12/20 10:41:46;;;;;;;118.55;64.07;;;;;;;13.84;95.46;96910.81;5115324;27;20034;-79
2023/12/20 10:44:12;;;;;;;117.40;61.42;;;;;;;13.86;98.09;96916.91;5131637;27;20026;-78
2023/12/20 10:46:40;;;;;;;89.82;52.00;;;;;;;14.04;99.88;96926.94;5119948;27;20032;-78
2023/12/20 10:49:07;;;;;;;95.25;50.47;;;;;;;14.92;91.41;96912.97;5116878;27;20045;-78
2023/12/20 10:51:37;;;;;;;78.18;43.30;;;;;;;16.35;74.43;96895.09;5118189;27;20037;-79
2023/12/20 10:54:06;;;;;;;82.70;44.75;;;;;;;16.91;65.88;96859.94;5112537;27;20026;-80
2023/12/20 10:56:33;;;;;;;82.35;42.80;;;;;;;16.80;71.92;96883.44;5134737;27;20038;-79
2023/12/20 10:59:02;;;;;;;71.03;37.17;;;;;;;16.69;61.20;96861.19;5104831;27;20053;-78
2023/12/20 11:01:29;;;;;;;70.57;37.58;;;;;;;17.05;63.07;96851.31;5126770;27;20450;-79
2023/12/20 11:03:54;;;;;;;98.13;50.08;;;;;;;16.72;61.83;96850.94;5133093;27;20451;-81
2023/12/20 11:06:34;;;;;;;44.92;26.08;;;;;;;17.69;55.46;96841.16;5133348;27;20046;-79
2023/12/20 11:09:22;;;;;;;57.83;34.15;;;;;;;17.65;60.16;96844.34;5133213;27;20466;-79
2023/12/20 11:11:56;;;;;;;83.43;44.85;;;;;;;17.67;59.01;96843.19;5130957;27;20105;-78